sensor_id;sensor_type;location;lat;lon;timestamp;P1;durP1;ratioP1;P2;durP2;ratioP2
66856;SDS011;53766;50.280;19.160;2023-03-22T00:01:27;21.98;;;14.57;;
66856;SDS011;53766;50.280;19.160;2023-03-22T00:03:57;23.92;;;14.45;;
66856;SDS011;53766;50.280;19.160;2023-03-22T00:06:25;22.60;;;14.48;;
66856;SDS011;53766;50.280;19.160;2023-03-22T00:08:53;22.42;;;13.95;;
66856;SDS011;53766;50.280;19.160;2023-03-22T00:11:21;23.08;;;13.90;;
66856;SDS011;53766;50.280;19.160;2023-03-22T00:13:53;23.23;;;14.18;;
66856;SDS011;53766;50.280;19.160;2023-03-22T00:16:20;21.73;;;14.55;;
66856;SDS011;53766;50.280;19.160;2023-03-22T00:18:48;25.95;;;15.38;;
66856;SDS011;53766;50.280;19.160;2023-03-22T00:21:16;23.02;;;14.70;;
66856;SDS011;53766;50.280;19.160;2023-03-22T00:23:44;25.00;;;15.05;;
66856;SDS011;53766;50.280;19.160;2023-03-22T00:26:12;22.75;;;13.88;;
66856;SDS011;53766;50.280;19.160;2023-03-22T00:28:41;23.65;;;14.82;;
66856;SDS011;53766;50.280;19.160;2023-03-22T00:31:09;24.90;;;15.02;;
66856;SDS011;53766;50.280;19.160;2023-03-22T00:33:37;22.00;;;14.02;;
66856;SDS011;53766;50.280;19.160;2023-03-22T00:36:08;25.52;;;14.40;;
66856;SDS011;53766;50.280;19.160;2023-03-22T00:38:37;22.30;;;14.23;;
66856;SDS011;53766;50.280;19.160;2023-03-22T00:43:49;24.33;;;15.35;;
66856;SDS011;53766;50.280;19.160;2023-03-22T00:46:18;22.90;;;14.85;;
66856;SDS011;53766;50.280;19.160;2023-03-22T00:48:47;22.70;;;14.80;;
66856;SDS011;53766;50.280;19.160;2023-03-22T00:51:15;24.52;;;14.73;;
66856;SDS011;53766;50.280;19.160;2023-03-22T00:53:43;24.17;;;14.20;;
66856;SDS011;53766;50.280;19.160;2023-03-22T00:56:11;23.02;;;14.60;;
66856;SDS011;53766;50.280;19.160;2023-03-22T00:58:41;25.83;;;14.77;;
66856;SDS011;53766;50.280;19.160;2023-03-22T01:01:09;24.48;;;14.90;;
66856;SDS011;53766;50.280;19.160;2023-03-22T01:03:41;23.02;;;14.68;;
66856;SDS011;53766;50.280;19.160;2023-03-22T01:06:09;23.25;;;14.65;;
66856;SDS011;53766;50.280;19.160;2023-03-22T01:08:37;24.80;;;14.43;;
66856;SDS011;53766;50.280;19.160;2023-03-22T01:11:05;21.80;;;14.40;;
66856;SDS011;53766;50.280;19.160;2023-03-22T01:13:34;22.50;;;14.85;;
66856;SDS011;53766;50.280;19.160;2023-03-22T01:16:08;21.80;;;14.38;;
66856;SDS011;53766;50.280;19.160;2023-03-22T01:18:36;22.52;;;14.43;;
66856;SDS011;53766;50.280;19.160;2023-03-22T01:21:04;23.65;;;14.55;;
66856;SDS011;53766;50.280;19.160;2023-03-22T01:23:32;24.30;;;14.85;;
66856;SDS011;53766;50.280;19.160;2023-03-22T01:26:00;21.90;;;15.15;;
66856;SDS011;53766;50.280;19.160;2023-03-22T01:28:28;25.65;;;14.77;;
66856;SDS011;53766;50.280;19.160;2023-03-22T01:30:59;24.25;;;15.20;;
66856;SDS011;53766;50.280;19.160;2023-03-22T01:33:29;23.35;;;14.93;;
66856;SDS011;53766;50.280;19.160;2023-03-22T01:35:57;23.42;;;14.98;;
66856;SDS011;53766;50.280;19.160;2023-03-22T01:38:24;21.55;;;14.38;;
66856;SDS011;53766;50.280;19.160;2023-03-22T01:40:52;24.67;;;15.25;;
66856;SDS011;53766;50.280;19.160;2023-03-22T01:43:19;22.23;;;13.63;;
66856;SDS011;53766;50.280;19.160;2023-03-22T01:45:48;23.92;;;14.90;;
66856;SDS011;53766;50.280;19.160;2023-03-22T01:48:28;25.27;;;14.77;;
66856;SDS011;53766;50.280;19.160;2023-03-22T01:51:02;21.80;;;13.73;;
66856;SDS011;53766;50.280;19.160;2023-03-22T01:53:42;23.50;;;14.05;;
66856;SDS011;53766;50.280;19.160;2023-03-22T01:56:14;23.70;;;14.60;;
66856;SDS011;53766;50.280;19.160;2023-03-22T01:58:45;23.90;;;14.98;;
66856;SDS011;53766;50.280;19.160;2023-03-22T02:01:14;24.10;;;14.18;;
66856;SDS011;53766;50.280;19.160;2023-03-22T02:03:51;23.17;;;14.27;;
66856;SDS011;53766;50.280;19.160;2023-03-22T02:06:29;22.88;;;13.88;;
66856;SDS011;53766;50.280;19.160;2023-03-22T02:08:58;22.67;;;14.48;;
66856;SDS011;53766;50.280;19.160;2023-03-22T02:11:36;23.83;;;14.82;;
66856;SDS011;53766;50.280;19.160;2023-03-22T02:28:07;23.52;;;15.13;;
66856;SDS011;53766;50.280;19.160;2023-03-22T02:31:07;22.90;;;14.70;;
66856;SDS011;53766;50.280;19.160;2023-03-22T02:42:41;20.08;;;14.00;;
66856;SDS011;53766;50.280;19.160;2023-03-22T02:45:09;21.58;;;14.32;;
66856;SDS011;53766;50.280;19.160;2023-03-22T02:53:26;23.52;;;13.73;;
66856;SDS011;53766;50.280;19.160;2023-03-22T02:56:02;20.65;;;14.23;;
66856;SDS011;53766;50.280;19.160;2023-03-22T02:58:32;20.23;;;14.07;;
66856;SDS011;53766;50.280;19.160;2023-03-22T03:01:08;23.88;;;14.68;;
66856;SDS011;53766;50.280;19.160;2023-03-22T03:03:41;22.08;;;14.07;;
66856;SDS011;53766;50.280;19.160;2023-03-22T03:06:09;21.00;;;13.73;;
66856;SDS011;53766;50.280;19.160;2023-03-22T03:08:43;22.50;;;14.30;;
66856;SDS011;53766;50.280;19.160;2023-03-22T03:11:16;21.90;;;14.75;;
66856;SDS011;53766;50.280;19.160;2023-03-22T03:13:47;21.73;;;14.63;;
66856;SDS011;53766;50.280;19.160;2023-03-22T03:16:17;22.42;;;14.93;;
66856;SDS011;53766;50.280;19.160;2023-03-22T03:21:54;19.35;;;13.57;;
66856;SDS011;53766;50.280;19.160;2023-03-22T03:24:32;20.50;;;14.10;;
66856;SDS011;53766;50.280;19.160;2023-03-22T03:27:15;22.77;;;14.23;;
66856;SDS011;53766;50.280;19.160;2023-03-22T03:32:21;19.38;;;13.55;;
66856;SDS011;53766;50.280;19.160;2023-03-22T03:35:00;20.88;;;13.98;;
66856;SDS011;53766;50.280;19.160;2023-03-22T03:37:37;21.33;;;14.45;;
66856;SDS011;53766;50.280;19.160;2023-03-22T03:40:15;19.60;;;13.57;;
66856;SDS011;53766;50.280;19.160;2023-03-22T03:42:50;20.45;;;14.23;;
66856;SDS011;53766;50.280;19.160;2023-03-22T03:45:19;21.45;;;13.48;;
66856;SDS011;53766;50.280;19.160;2023-03-22T03:47:49;21.33;;;13.88;;
66856;SDS011;53766;50.280;19.160;2023-03-22T03:50:23;22.20;;;14.10;;
66856;SDS011;53766;50.280;19.160;2023-03-22T03:52:53;20.25;;;13.98;;
66856;SDS011;53766;50.280;19.160;2023-03-22T03:55:21;20.63;;;13.73;;
66856;SDS011;53766;50.280;19.160;2023-03-22T03:57:49;21.42;;;14.23;;
66856;SDS011;53766;50.280;19.160;2023-03-22T04:00:17;20.05;;;13.95;;
66856;SDS011;53766;50.280;19.160;2023-03-22T04:02:45;21.25;;;14.32;;
66856;SDS011;53766;50.280;19.160;2023-03-22T04:05:13;21.95;;;13.68;;
66856;SDS011;53766;50.280;19.160;2023-03-22T04:07:41;21.80;;;13.75;;
66856;SDS011;53766;50.280;19.160;2023-03-22T04:10:09;20.67;;;13.77;;
66856;SDS011;53766;50.280;19.160;2023-03-22T04:12:37;20.77;;;13.55;;
66856;SDS011;53766;50.280;19.160;2023-03-22T04:15:05;20.95;;;13.38;;
66856;SDS011;53766;50.280;19.160;2023-03-22T04:17:32;18.48;;;12.90;;
66856;SDS011;53766;50.280;19.160;2023-03-22T04:20:00;20.50;;;13.80;;
66856;SDS011;53766;50.280;19.160;2023-03-22T04:22:31;21.38;;;13.88;;
66856;SDS011;53766;50.280;19.160;2023-03-22T04:25:05;22.58;;;14.15;;
66856;SDS011;53766;50.280;19.160;2023-03-22T04:27:39;19.25;;;13.48;;
66856;SDS011;53766;50.280;19.160;2023-03-22T04:30:09;21.23;;;13.70;;
66856;SDS011;53766;50.280;19.160;2023-03-22T04:32:46;18.48;;;12.82;;
66856;SDS011;53766;50.280;19.160;2023-03-22T04:35:14;21.35;;;14.07;;
66856;SDS011;53766;50.280;19.160;2023-03-22T04:37:42;22.10;;;14.10;;
66856;SDS011;53766;50.280;19.160;2023-03-22T04:40:09;20.30;;;13.80;;
66856;SDS011;53766;50.280;19.160;2023-03-22T04:42:43;18.73;;;13.27;;
66856;SDS011;53766;50.280;19.160;2023-03-22T04:45:11;23.13;;;13.68;;
66856;SDS011;53766;50.280;19.160;2023-03-22T04:47:39;19.83;;;14.05;;
66856;SDS011;53766;50.280;19.160;2023-03-22T04:50:07;23.65;;;14.25;;
66856;SDS011;53766;50.280;19.160;2023-03-22T04:52:35;18.70;;;13.65;;
66856;SDS011;53766;50.280;19.160;2023-03-22T04:55:04;22.08;;;13.23;;
66856;SDS011;53766;50.280;19.160;2023-03-22T04:57:31;21.02;;;13.05;;
66856;SDS011;53766;50.280;19.160;2023-03-22T05:00:00;19.55;;;12.82;;
66856;SDS011;53766;50.280;19.160;2023-03-22T05:02:32;19.65;;;13.13;;
66856;SDS011;53766;50.280;19.160;2023-03-22T05:04:59;19.80;;;13.02;;
66856;SDS011;53766;50.280;19.160;2023-03-22T05:07:27;19.42;;;12.55;;
66856;SDS011;53766;50.280;19.160;2023-03-22T05:09:54;20.83;;;13.10;;
66856;SDS011;53766;50.280;19.160;2023-03-22T05:12:22;20.52;;;13.45;;
66856;SDS011;53766;50.280;19.160;2023-03-22T05:14:50;19.05;;;12.40;;
66856;SDS011;53766;50.280;19.160;2023-03-22T05:17:17;22.20;;;13.15;;
66856;SDS011;53766;50.280;19.160;2023-03-22T05:19:45;19.10;;;13.10;;
66856;SDS011;53766;50.280;19.160;2023-03-22T05:22:12;18.80;;;13.38;;
66856;SDS011;53766;50.280;19.160;2023-03-22T05:24:40;22.65;;;12.98;;
66856;SDS011;53766;50.280;19.160;2023-03-22T05:27:07;20.30;;;13.30;;
66856;SDS011;53766;50.280;19.160;2023-03-22T05:29:37;20.52;;;13.45;;
66856;SDS011;53766;50.280;19.160;2023-03-22T05:32:04;18.80;;;13.23;;
66856;SDS011;53766;50.280;19.160;2023-03-22T05:34:32;17.67;;;12.32;;
66856;SDS011;53766;50.280;19.160;2023-03-22T05:37:02;18.02;;;12.70;;
66856;SDS011;53766;50.280;19.160;2023-03-22T05:39:30;19.25;;;12.70;;
66856;SDS011;53766;50.280;19.160;2023-03-22T05:41:57;18.27;;;12.32;;
66856;SDS011;53766;50.280;19.160;2023-03-22T05:44:25;17.35;;;12.52;;
66856;SDS011;53766;50.280;19.160;2023-03-22T05:46:52;17.70;;;13.02;;
66856;SDS011;53766;50.280;19.160;2023-03-22T05:49:20;18.05;;;13.07;;
66856;SDS011;53766;50.280;19.160;2023-03-22T05:51:47;17.08;;;12.63;;
66856;SDS011;53766;50.280;19.160;2023-03-22T05:54:15;22.08;;;12.75;;
66856;SDS011;53766;50.280;19.160;2023-03-22T05:56:42;18.15;;;12.55;;
66856;SDS011;53766;50.280;19.160;2023-03-22T05:59:10;20.38;;;13.10;;
66856;SDS011;53766;50.280;19.160;2023-03-22T06:01:37;18.17;;;12.32;;
66856;SDS011;53766;50.280;19.160;2023-03-22T06:04:05;18.70;;;13.02;;
66856;SDS011;53766;50.280;19.160;2023-03-22T06:06:33;19.70;;;12.15;;
66856;SDS011;53766;50.280;19.160;2023-03-22T06:09:00;16.95;;;12.70;;
66856;SDS011;53766;50.280;19.160;2023-03-22T06:11:43;19.95;;;13.65;;
66856;SDS011;53766;50.280;19.160;2023-03-22T06:14:11;19.58;;;13.75;;
66856;SDS011;53766;50.280;19.160;2023-03-22T06:16:39;22.13;;;15.02;;
66856;SDS011;53766;50.280;19.160;2023-03-22T06:19:08;23.85;;;16.58;;
66856;SDS011;53766;50.280;19.160;2023-03-22T06:21:36;25.33;;;16.58;;
66856;SDS011;53766;50.280;19.160;2023-03-22T06:24:04;26.00;;;17.33;;
66856;SDS011;53766;50.280;19.160;2023-03-22T06:26:32;29.02;;;17.83;;
66856;SDS011;53766;50.280;19.160;2023-03-22T06:28:59;30.63;;;20.65;;
66856;SDS011;53766;50.280;19.160;2023-03-22T06:31:30;30.77;;;20.83;;
66856;SDS011;53766;50.280;19.160;2023-03-22T06:33:58;33.83;;;20.60;;
66856;SDS011;53766;50.280;19.160;2023-03-22T06:36:25;37.80;;;19.90;;
66856;SDS011;53766;50.280;19.160;2023-03-22T06:38:53;30.90;;;20.10;;
66856;SDS011;53766;50.280;19.160;2023-03-22T06:41:21;37.40;;;20.45;;
66856;SDS011;53766;50.280;19.160;2023-03-22T06:43:49;31.08;;;18.92;;
66856;SDS011;53766;50.280;19.160;2023-03-22T06:46:16;32.35;;;19.88;;
66856;SDS011;53766;50.280;19.160;2023-03-22T06:48:44;32.05;;;18.65;;
66856;SDS011;53766;50.280;19.160;2023-03-22T06:51:12;33.20;;;18.38;;
66856;SDS011;53766;50.280;19.160;2023-03-22T06:53:40;30.98;;;17.95;;
66856;SDS011;53766;50.280;19.160;2023-03-22T06:56:07;32.85;;;18.50;;
66856;SDS011;53766;50.280;19.160;2023-03-22T06:58:35;28.58;;;18.05;;
66856;SDS011;53766;50.280;19.160;2023-03-22T07:01:02;32.33;;;17.77;;
66856;SDS011;53766;50.280;19.160;2023-03-22T07:03:30;29.88;;;17.13;;
66856;SDS011;53766;50.280;19.160;2023-03-22T07:06:05;30.02;;;17.23;;
66856;SDS011;53766;50.280;19.160;2023-03-22T07:08:35;26.50;;;15.85;;
66856;SDS011;53766;50.280;19.160;2023-03-22T07:11:03;27.02;;;17.33;;
66856;SDS011;53766;50.280;19.160;2023-03-22T07:13:31;25.05;;;16.00;;
66856;SDS011;53766;50.280;19.160;2023-03-22T07:15:59;26.00;;;16.52;;
66856;SDS011;53766;50.280;19.160;2023-03-22T07:18:28;28.38;;;16.40;;
66856;SDS011;53766;50.280;19.160;2023-03-22T07:20:56;27.60;;;16.30;;
66856;SDS011;53766;50.280;19.160;2023-03-22T07:23:24;24.83;;;16.42;;
66856;SDS011;53766;50.280;19.160;2023-03-22T07:25:52;24.95;;;15.55;;
66856;SDS011;53766;50.280;19.160;2023-03-22T07:28:22;24.55;;;15.30;;
66856;SDS011;53766;50.280;19.160;2023-03-22T07:30:57;27.25;;;15.73;;
66856;SDS011;53766;50.280;19.160;2023-03-22T07:33:30;28.20;;;16.00;;
66856;SDS011;53766;50.280;19.160;2023-03-22T07:35:57;25.83;;;15.65;;
66856;SDS011;53766;50.280;19.160;2023-03-22T07:38:25;25.58;;;15.68;;
66856;SDS011;53766;50.280;19.160;2023-03-22T07:40:53;24.75;;;14.82;;
66856;SDS011;53766;50.280;19.160;2023-03-22T07:43:21;24.92;;;15.13;;
66856;SDS011;53766;50.280;19.160;2023-03-22T07:45:50;23.10;;;15.07;;
66856;SDS011;53766;50.280;19.160;2023-03-22T07:48:18;26.55;;;16.23;;
66856;SDS011;53766;50.280;19.160;2023-03-22T07:50:53;25.48;;;15.60;;
66856;SDS011;53766;50.280;19.160;2023-03-22T07:53:22;25.85;;;15.20;;
66856;SDS011;53766;50.280;19.160;2023-03-22T07:55:49;24.25;;;15.70;;
66856;SDS011;53766;50.280;19.160;2023-03-22T07:58:17;26.02;;;15.73;;
66856;SDS011;53766;50.280;19.160;2023-03-22T08:00:44;22.30;;;15.10;;
66856;SDS011;53766;50.280;19.160;2023-03-22T08:03:12;23.83;;;14.77;;
66856;SDS011;53766;50.280;19.160;2023-03-22T08:05:40;21.92;;;14.30;;
66856;SDS011;53766;50.280;19.160;2023-03-22T08:08:09;21.05;;;14.00;;
66856;SDS011;53766;50.280;19.160;2023-03-22T08:10:39;22.13;;;14.35;;
66856;SDS011;53766;50.280;19.160;2023-03-22T08:13:07;23.45;;;14.52;;
66856;SDS011;53766;50.280;19.160;2023-03-22T08:15:34;25.70;;;14.50;;
66856;SDS011;53766;50.280;19.160;2023-03-22T08:18:05;23.55;;;13.95;;
66856;SDS011;53766;50.280;19.160;2023-03-22T08:20:34;25.38;;;14.90;;
66856;SDS011;53766;50.280;19.160;2023-03-22T08:23:04;22.65;;;13.70;;
66856;SDS011;53766;50.280;19.160;2023-03-22T08:25:33;25.42;;;13.75;;
66856;SDS011;53766;50.280;19.160;2023-03-22T08:28:03;27.10;;;14.80;;
66856;SDS011;53766;50.280;19.160;2023-03-22T08:30:31;27.98;;;14.65;;
66856;SDS011;53766;50.280;19.160;2023-03-22T08:32:58;26.70;;;13.70;;
66856;SDS011;53766;50.280;19.160;2023-03-22T08:35:26;27.08;;;14.50;;
66856;SDS011;53766;50.280;19.160;2023-03-22T08:37:54;25.13;;;14.10;;
66856;SDS011;53766;50.280;19.160;2023-03-22T08:40:22;30.75;;;14.13;;
66856;SDS011;53766;50.280;19.160;2023-03-22T08:42:50;30.13;;;15.18;;
66856;SDS011;53766;50.280;19.160;2023-03-22T08:45:17;23.00;;;14.38;;
66856;SDS011;53766;50.280;19.160;2023-03-22T08:47:45;25.63;;;14.73;;
66856;SDS011;53766;50.280;19.160;2023-03-22T08:50:13;20.08;;;14.05;;
66856;SDS011;53766;50.280;19.160;2023-03-22T08:52:40;25.73;;;13.80;;
66856;SDS011;53766;50.280;19.160;2023-03-22T08:55:08;23.00;;;14.27;;
66856;SDS011;53766;50.280;19.160;2023-03-22T08:57:36;24.25;;;13.95;;
66856;SDS011;53766;50.280;19.160;2023-03-22T09:00:05;25.85;;;14.50;;
66856;SDS011;53766;50.280;19.160;2023-03-22T09:02:33;25.17;;;14.48;;
66856;SDS011;53766;50.280;19.160;2023-03-22T09:05:00;23.92;;;14.45;;
66856;SDS011;53766;50.280;19.160;2023-03-22T09:07:28;27.73;;;16.38;;
66856;SDS011;53766;50.280;19.160;2023-03-22T09:09:55;26.48;;;16.27;;
66856;SDS011;53766;50.280;19.160;2023-03-22T09:12:23;29.05;;;17.67;;
66856;SDS011;53766;50.280;19.160;2023-03-22T09:14:51;34.60;;;19.30;;
66856;SDS011;53766;50.280;19.160;2023-03-22T09:17:22;30.23;;;18.73;;
66856;SDS011;53766;50.280;19.160;2023-03-22T09:19:49;32.08;;;17.23;;
66856;SDS011;53766;50.280;19.160;2023-03-22T09:22:28;27.60;;;16.98;;
66856;SDS011;53766;50.280;19.160;2023-03-22T09:24:56;36.35;;;17.60;;
66856;SDS011;53766;50.280;19.160;2023-03-22T09:27:23;27.90;;;16.98;;
66856;SDS011;53766;50.280;19.160;2023-03-22T09:29:51;29.23;;;17.92;;
66856;SDS011;53766;50.280;19.160;2023-03-22T09:32:18;26.95;;;16.83;;
66856;SDS011;53766;50.280;19.160;2023-03-22T09:34:49;30.83;;;17.48;;
66856;SDS011;53766;50.280;19.160;2023-03-22T09:37:17;24.55;;;16.08;;
66856;SDS011;53766;50.280;19.160;2023-03-22T09:39:46;32.33;;;16.83;;
66856;SDS011;53766;50.280;19.160;2023-03-22T09:44:43;25.08;;;15.90;;
66856;SDS011;53766;50.280;19.160;2023-03-22T09:47:15;23.85;;;15.32;;
66856;SDS011;53766;50.280;19.160;2023-03-22T09:49:46;22.85;;;15.80;;
66856;SDS011;53766;50.280;19.160;2023-03-22T09:54:47;23.23;;;14.25;;
66856;SDS011;53766;50.280;19.160;2023-03-22T09:57:31;25.50;;;15.60;;
66856;SDS011;53766;50.280;19.160;2023-03-22T10:00:17;25.17;;;15.48;;
66856;SDS011;53766;50.280;19.160;2023-03-22T10:02:57;26.58;;;15.05;;
66856;SDS011;53766;50.280;19.160;2023-03-22T10:09:03;22.38;;;14.50;;
66856;SDS011;53766;50.280;19.160;2023-03-22T10:11:43;25.23;;;14.90;;
66856;SDS011;53766;50.280;19.160;2023-03-22T10:14:19;24.10;;;13.40;;
66856;SDS011;53766;50.280;19.160;2023-03-22T10:16:54;29.85;;;15.32;;
66856;SDS011;53766;50.280;19.160;2023-03-22T10:19:28;21.02;;;14.05;;
66856;SDS011;53766;50.280;19.160;2023-03-22T10:22:01;22.20;;;13.70;;
66856;SDS011;53766;50.280;19.160;2023-03-22T10:24:34;24.70;;;13.38;;
66856;SDS011;53766;50.280;19.160;2023-03-22T10:27:10;20.17;;;13.65;;
66856;SDS011;53766;50.280;19.160;2023-03-22T10:29:43;22.55;;;13.25;;
66856;SDS011;53766;50.280;19.160;2023-03-22T10:35:24;22.45;;;13.43;;
66856;SDS011;53766;50.280;19.160;2023-03-22T10:37:51;19.90;;;13.13;;
66856;SDS011;53766;50.280;19.160;2023-03-22T10:40:29;20.80;;;13.48;;
66856;SDS011;53766;50.280;19.160;2023-03-22T10:43:00;20.65;;;13.02;;
66856;SDS011;53766;50.280;19.160;2023-03-22T10:45:47;20.65;;;12.70;;
66856;SDS011;53766;50.280;19.160;2023-03-22T10:48:25;21.75;;;12.80;;
66856;SDS011;53766;50.280;19.160;2023-03-22T10:50:55;21.60;;;12.63;;
66856;SDS011;53766;50.280;19.160;2023-03-22T10:53:41;16.23;;;11.75;;
66856;SDS011;53766;50.280;19.160;2023-03-22T10:56:13;20.42;;;12.95;;
66856;SDS011;53766;50.280;19.160;2023-03-22T10:58:44;19.83;;;12.30;;
66856;SDS011;53766;50.280;19.160;2023-03-22T11:01:14;21.00;;;12.40;;
66856;SDS011;53766;50.280;19.160;2023-03-22T11:04:07;17.83;;;11.73;;
66856;SDS011;53766;50.280;19.160;2023-03-22T11:06:39;20.55;;;12.15;;
66856;SDS011;53766;50.280;19.160;2023-03-22T11:09:16;18.55;;;12.65;;
66856;SDS011;53766;50.280;19.160;2023-03-22T11:11:46;18.88;;;12.15;;
66856;SDS011;53766;50.280;19.160;2023-03-22T11:14:30;18.38;;;12.05;;
66856;SDS011;53766;50.280;19.160;2023-03-22T11:19:35;17.20;;;11.15;;
66856;SDS011;53766;50.280;19.160;2023-03-22T11:22:51;17.45;;;11.55;;
66856;SDS011;53766;50.280;19.160;2023-03-22T11:25:00;19.08;;;11.93;;
66856;SDS011;53766;50.280;19.160;2023-03-22T11:27:30;17.02;;;11.48;;
66856;SDS011;53766;50.280;19.160;2023-03-22T11:30:19;17.40;;;11.98;;
66856;SDS011;53766;50.280;19.160;2023-03-22T11:35:42;18.05;;;11.43;;
66856;SDS011;53766;50.280;19.160;2023-03-22T11:38:23;22.67;;;11.88;;
66856;SDS011;53766;50.280;19.160;2023-03-22T11:40:53;16.60;;;11.02;;
66856;SDS011;53766;50.280;19.160;2023-03-22T11:43:24;19.83;;;11.70;;
66856;SDS011;53766;50.280;19.160;2023-03-22T11:45:59;16.73;;;10.75;;
66856;SDS011;53766;50.280;19.160;2023-03-22T11:48:28;16.98;;;10.82;;
66856;SDS011;53766;50.280;19.160;2023-03-22T11:51:02;19.15;;;10.52;;
66856;SDS011;53766;50.280;19.160;2023-03-22T11:53:39;16.98;;;10.85;;
66856;SDS011;53766;50.280;19.160;2023-03-22T11:56:10;16.90;;;11.27;;
66856;SDS011;53766;50.280;19.160;2023-03-22T11:58:43;15.63;;;10.27;;
66856;SDS011;53766;50.280;19.160;2023-03-22T12:01:23;14.60;;;9.25;;
66856;SDS011;53766;50.280;19.160;2023-03-22T12:04:00;17.95;;;8.98;;
66856;SDS011;53766;50.280;19.160;2023-03-22T12:06:32;14.73;;;8.27;;
66856;SDS011;53766;50.280;19.160;2023-03-22T12:11:40;13.10;;;7.22;;
66856;SDS011;53766;50.280;19.160;2023-03-22T12:16:55;12.68;;;6.35;;
66856;SDS011;53766;50.280;19.160;2023-03-22T12:22:17;11.85;;;5.90;;
66856;SDS011;53766;50.280;19.160;2023-03-22T12:27:20;9.30;;;4.90;;
66856;SDS011;53766;50.280;19.160;2023-03-22T12:29:58;9.23;;;4.57;;
66856;SDS011;53766;50.280;19.160;2023-03-22T12:32:34;8.85;;;4.65;;
66856;SDS011;53766;50.280;19.160;2023-03-22T12:35:05;12.30;;;4.70;;
66856;SDS011;53766;50.280;19.160;2023-03-22T12:37:48;8.23;;;4.18;;
66856;SDS011;53766;50.280;19.160;2023-03-22T12:40:23;7.50;;;3.95;;
66856;SDS011;53766;50.280;19.160;2023-03-22T12:43:16;7.82;;;3.97;;
66856;SDS011;53766;50.280;19.160;2023-03-22T12:46:00;9.85;;;3.90;;
66856;SDS011;53766;50.280;19.160;2023-03-22T12:48:33;10.13;;;3.80;;
66856;SDS011;53766;50.280;19.160;2023-03-22T12:51:08;6.55;;;3.70;;
66856;SDS011;53766;50.280;19.160;2023-03-22T12:53:42;7.88;;;3.53;;
66856;SDS011;53766;50.280;19.160;2023-03-22T12:56:21;7.60;;;4.10;;
66856;SDS011;53766;50.280;19.160;2023-03-22T12:58:54;6.40;;;3.50;;
66856;SDS011;53766;50.280;19.160;2023-03-22T13:01:34;6.65;;;3.38;;
66856;SDS011;53766;50.280;19.160;2023-03-22T13:04:25;8.98;;;3.40;;
66856;SDS011;53766;50.280;19.160;2023-03-22T13:06:55;7.25;;;3.78;;
66856;SDS011;53766;50.280;19.160;2023-03-22T13:09:35;6.28;;;3.50;;
66856;SDS011;53766;50.280;19.160;2023-03-22T13:14:54;6.20;;;3.13;;
66856;SDS011;53766;50.280;19.160;2023-03-22T13:27:50;4.65;;;3.03;;
66856;SDS011;53766;50.280;19.160;2023-03-22T13:32:48;7.18;;;3.17;;
66856;SDS011;53766;50.280;19.160;2023-03-22T13:35:25;6.00;;;3.20;;
66856;SDS011;53766;50.280;19.160;2023-03-22T13:38:01;5.80;;;3.00;;
66856;SDS011;53766;50.280;19.160;2023-03-22T13:40:36;4.83;;;2.80;;
66856;SDS011;53766;50.280;19.160;2023-03-22T13:46:05;6.90;;;3.30;;
66856;SDS011;53766;50.280;19.160;2023-03-22T13:54:02;3.85;;;2.90;;
66856;SDS011;53766;50.280;19.160;2023-03-22T14:01:49;5.13;;;2.88;;
66856;SDS011;53766;50.280;19.160;2023-03-22T14:04:24;6.90;;;3.08;;
66856;SDS011;53766;50.280;19.160;2023-03-22T14:10:19;6.45;;;3.40;;
66856;SDS011;53766;50.280;19.160;2023-03-22T14:15:48;4.60;;;2.85;;
66856;SDS011;53766;50.280;19.160;2023-03-22T14:18:20;5.05;;;3.22;;
66856;SDS011;53766;50.280;19.160;2023-03-22T14:20:59;4.70;;;3.08;;
66856;SDS011;53766;50.280;19.160;2023-03-22T14:23:41;4.53;;;2.90;;
66856;SDS011;53766;50.280;19.160;2023-03-22T14:28:51;5.18;;;2.70;;
66856;SDS011;53766;50.280;19.160;2023-03-22T14:31:24;4.00;;;2.60;;
66856;SDS011;53766;50.280;19.160;2023-03-22T14:33:54;4.57;;;2.80;;
66856;SDS011;53766;50.280;19.160;2023-03-22T14:36:27;5.57;;;3.42;;
66856;SDS011;53766;50.280;19.160;2023-03-22T14:38:56;5.53;;;3.10;;
66856;SDS011;53766;50.280;19.160;2023-03-22T14:42:04;5.93;;;3.20;;
66856;SDS011;53766;50.280;19.160;2023-03-22T14:44:39;5.43;;;2.95;;
66856;SDS011;53766;50.280;19.160;2023-03-22T14:47:14;5.82;;;2.83;;
66856;SDS011;53766;50.280;19.160;2023-03-22T14:49:43;4.43;;;2.80;;
66856;SDS011;53766;50.280;19.160;2023-03-22T14:52:13;4.85;;;3.13;;
66856;SDS011;53766;50.280;19.160;2023-03-22T14:54:51;4.30;;;2.80;;
66856;SDS011;53766;50.280;19.160;2023-03-22T14:57:25;5.53;;;2.85;;
66856;SDS011;53766;50.280;19.160;2023-03-22T14:59:53;5.70;;;2.95;;
66856;SDS011;53766;50.280;19.160;2023-03-22T15:02:32;5.22;;;3.00;;
66856;SDS011;53766;50.280;19.160;2023-03-22T15:05:08;4.60;;;3.00;;
66856;SDS011;53766;50.280;19.160;2023-03-22T15:08:04;4.90;;;3.05;;
66856;SDS011;53766;50.280;19.160;2023-03-22T15:10:33;3.77;;;2.70;;
66856;SDS011;53766;50.280;19.160;2023-03-22T15:13:01;4.07;;;2.60;;
66856;SDS011;53766;50.280;19.160;2023-03-22T15:15:31;6.57;;;2.90;;
66856;SDS011;53766;50.280;19.160;2023-03-22T15:17:59;4.78;;;2.83;;
66856;SDS011;53766;50.280;19.160;2023-03-22T15:20:27;4.55;;;2.83;;
66856;SDS011;53766;50.280;19.160;2023-03-22T15:22:57;4.50;;;2.58;;
66856;SDS011;53766;50.280;19.160;2023-03-22T15:25:32;4.28;;;2.60;;
66856;SDS011;53766;50.280;19.160;2023-03-22T15:28:00;4.53;;;2.92;;
66856;SDS011;53766;50.280;19.160;2023-03-22T15:30:31;4.75;;;2.80;;
66856;SDS011;53766;50.280;19.160;2023-03-22T15:33:03;4.28;;;2.92;;
66856;SDS011;53766;50.280;19.160;2023-03-22T15:35:32;4.67;;;2.83;;
66856;SDS011;53766;50.280;19.160;2023-03-22T15:37:59;4.10;;;2.75;;
66856;SDS011;53766;50.280;19.160;2023-03-22T15:43:19;5.38;;;2.60;;
66856;SDS011;53766;50.280;19.160;2023-03-22T15:51:16;3.53;;;2.58;;
66856;SDS011;53766;50.280;19.160;2023-03-22T15:53:45;6.13;;;2.72;;
66856;SDS011;53766;50.280;19.160;2023-03-22T15:56:18;5.82;;;3.08;;
66856;SDS011;53766;50.280;19.160;2023-03-22T15:58:51;5.78;;;3.10;;
66856;SDS011;53766;50.280;19.160;2023-03-22T16:01:20;7.50;;;3.05;;
66856;SDS011;53766;50.280;19.160;2023-03-22T16:03:52;5.75;;;2.70;;
66856;SDS011;53766;50.280;19.160;2023-03-22T16:08:49;4.97;;;2.80;;
66856;SDS011;53766;50.280;19.160;2023-03-22T16:11:16;3.95;;;2.83;;
66856;SDS011;53766;50.280;19.160;2023-03-22T16:13:48;9.48;;;2.90;;
66856;SDS011;53766;50.280;19.160;2023-03-22T16:16:16;6.43;;;3.15;;
66856;SDS011;53766;50.280;19.160;2023-03-22T16:18:44;7.63;;;2.85;;
66856;SDS011;53766;50.280;19.160;2023-03-22T16:21:11;6.93;;;3.38;;
66856;SDS011;53766;50.280;19.160;2023-03-22T16:23:39;5.97;;;2.90;;
66856;SDS011;53766;50.280;19.160;2023-03-22T16:26:13;7.10;;;2.80;;
66856;SDS011;53766;50.280;19.160;2023-03-22T16:28:41;5.15;;;2.80;;
66856;SDS011;53766;50.280;19.160;2023-03-22T16:31:13;5.28;;;3.00;;